This is the latest recevied weather packets stored in our database for station/object LZ2SMX-2. If no packets are shown the sender has not sent any weather packets the latest 10 day(s).
| Time | Temp. | Humidity | Pressure | Rain* | Wind** | Luminosity | Snow |
|---|---|---|---|---|---|---|---|
| 1777759990 | 5° C | 89% | 995 hPa | 0 mm | - | - | - |
| 1777758790 | 3.89° C | 89% | 996 hPa | 0 mm | - | - | - |
| 1777757590 | 5° C | 88% | 996 hPa | 0 mm | - | - | - |
| 1777756392 | 5° C | 86% | 996 hPa | 0 mm | - | - | - |
| 1777755190 | 5° C | 86% | 996 hPa | 0 mm | - | - | - |
| 1777753991 | 5° C | 86% | 995 hPa | 0 mm | - | - | - |
| 1777752790 | 5° C | 86% | 995 hPa | 0 mm | - | - | - |
| 1777751590 | 5° C | 85% | 995 hPa | 0 mm | - | - | - |
| 1777750390 | 5° C | 85% | 995 hPa | 0 mm | - | - | - |
| 1777749191 | 5° C | 85% | 995 hPa | 0 mm | - | - | - |
| 1777747991 | 5° C | 84% | 995 hPa | 0 mm | - | - | - |
| 1777746791 | 5° C | 85% | 996 hPa | 0 mm | - | - | - |
| 1777745590 | 5° C | 87% | 996 hPa | 0 mm | - | - | - |
| 1777744392 | 5° C | 87% | 995 hPa | 0 mm | - | - | - |
| 1777743190 | 5.56° C | 87% | 996 hPa | 0 mm | - | - | - |
| 1777741990 | 5.56° C | 83% | 995 hPa | 0 mm | - | - | - |
| 1777740789 | 5.56° C | 82% | 995 hPa | 0 mm | - | - | - |
| 1777739591 | 6.67° C | 79% | 995 hPa | 0 mm | - | - | - |
| 1777738390 | 7.78° C | 71% | 995 hPa | 0 mm | - | - | - |
| 1777737191 | 8.89° C | 64% | 995 hPa | 0 mm | - | - | - |
| 1777735991 | 10° C | 55% | 995 hPa | 0 mm | - | - | - |
| 1777734790 | 10° C | 56% | 995 hPa | 0 mm | - | - | - |
| 1777733590 | 10.56° C | 56% | 995 hPa | 0 mm | - | - | - |
| 1777732390 | 10° C | 58% | 995 hPa | 0 mm | - | - | - |
| 1777731191 | 10° C | 64% | 995 hPa | 0 mm | - | - | - |
* Rain latest hour (hover to see other rain measurements)
** Current wind speed in m/s (hover to see current wind gust speed)